sensor_id;sensor_type;location;lat;lon;timestamp;P1;durP1;ratioP1;P2;durP2;ratioP2
3052;SDS011;1536;51.098;6.414;2022-08-05T00:01:10;6.20;;;2.90;;
3052;SDS011;1536;51.098;6.414;2022-08-05T00:03:38;6.70;;;2.87;;
3052;SDS011;1536;51.098;6.414;2022-08-05T00:06:05;5.13;;;3.27;;
3052;SDS011;1536;51.098;6.414;2022-08-05T00:08:34;7.73;;;3.53;;
3052;SDS011;1536;51.098;6.414;2022-08-05T00:11:01;10.40;;;3.37;;
3052;SDS011;1536;51.098;6.414;2022-08-05T00:13:30;5.07;;;3.10;;
3052;SDS011;1536;51.098;6.414;2022-08-05T00:15:58;5.40;;;2.97;;
3052;SDS011;1536;51.098;6.414;2022-08-05T00:18:24;4.23;;;3.00;;
3052;SDS011;1536;51.098;6.414;2022-08-05T00:20:51;5.90;;;2.97;;
3052;SDS011;1536;51.098;6.414;2022-08-05T00:23:19;7.80;;;3.90;;
3052;SDS011;1536;51.098;6.414;2022-08-05T00:25:49;4.80;;;3.43;;
3052;SDS011;1536;51.098;6.414;2022-08-05T00:28:16;7.80;;;3.03;;
3052;SDS011;1536;51.098;6.414;2022-08-05T00:30:43;5.73;;;3.20;;
3052;SDS011;1536;51.098;6.414;2022-08-05T00:33:10;6.50;;;2.90;;
3052;SDS011;1536;51.098;6.414;2022-08-05T00:35:37;7.07;;;4.57;;
3052;SDS011;1536;51.098;6.414;2022-08-05T00:38:03;4.10;;;3.60;;
3052;SDS011;1536;51.098;6.414;2022-08-05T00:40:30;6.50;;;3.63;;
3052;SDS011;1536;51.098;6.414;2022-08-05T00:42:59;6.70;;;3.67;;
3052;SDS011;1536;51.098;6.414;2022-08-05T00:45:27;7.20;;;3.50;;
3052;SDS011;1536;51.098;6.414;2022-08-05T00:47:54;4.60;;;3.90;;
3052;SDS011;1536;51.098;6.414;2022-08-05T00:50:21;7.70;;;3.30;;
3052;SDS011;1536;51.098;6.414;2022-08-05T00:52:48;7.20;;;3.70;;
3052;SDS011;1536;51.098;6.414;2022-08-05T00:55:15;5.23;;;3.80;;
3052;SDS011;1536;51.098;6.414;2022-08-05T00:57:42;9.83;;;3.90;;
3052;SDS011;1536;51.098;6.414;2022-08-05T01:00:11;6.80;;;3.77;;
3052;SDS011;1536;51.098;6.414;2022-08-05T01:02:38;6.10;;;3.70;;
3052;SDS011;1536;51.098;6.414;2022-08-05T01:05:05;7.10;;;4.00;;
3052;SDS011;1536;51.098;6.414;2022-08-05T01:07:32;9.30;;;4.07;;
3052;SDS011;1536;51.098;6.414;2022-08-05T01:09:59;5.20;;;4.07;;
3052;SDS011;1536;51.098;6.414;2022-08-05T01:12:27;5.57;;;4.40;;
3052;SDS011;1536;51.098;6.414;2022-08-05T01:14:55;7.53;;;4.80;;
3052;SDS011;1536;51.098;6.414;2022-08-05T01:17:29;5.17;;;4.60;;
3052;SDS011;1536;51.098;6.414;2022-08-05T01:20:02;6.70;;;5.00;;
3052;SDS011;1536;51.098;6.414;2022-08-05T01:22:48;10.10;;;5.93;;
3052;SDS011;1536;51.098;6.414;2022-08-05T01:25:28;5.97;;;5.10;;
3052;SDS011;1536;51.098;6.414;2022-08-05T01:28:17;6.27;;;5.33;;
3052;SDS011;1536;51.098;6.414;2022-08-05T01:30:50;12.70;;;4.70;;
3052;SDS011;1536;51.098;6.414;2022-08-05T01:33:20;6.87;;;5.23;;
3052;SDS011;1536;51.098;6.414;2022-08-05T01:35:53;8.40;;;5.83;;
3052;SDS011;1536;51.098;6.414;2022-08-05T01:38:21;5.93;;;4.60;;
3052;SDS011;1536;51.098;6.414;2022-08-05T01:40:51;8.33;;;5.53;;
3052;SDS011;1536;51.098;6.414;2022-08-05T01:43:20;5.37;;;4.67;;
3052;SDS011;1536;51.098;6.414;2022-08-05T01:45:48;6.43;;;4.80;;
3052;SDS011;1536;51.098;6.414;2022-08-05T01:48:17;9.30;;;5.03;;
3052;SDS011;1536;51.098;6.414;2022-08-05T01:50:44;6.10;;;5.00;;
3052;SDS011;1536;51.098;6.414;2022-08-05T01:53:12;8.73;;;4.87;;
3052;SDS011;1536;51.098;6.414;2022-08-05T01:55:41;8.20;;;5.47;;
3052;SDS011;1536;51.098;6.414;2022-08-05T01:58:10;5.00;;;4.40;;
3052;SDS011;1536;51.098;6.414;2022-08-05T02:00:43;10.83;;;4.93;;
3052;SDS011;1536;51.098;6.414;2022-08-05T02:03:15;5.33;;;4.80;;
3052;SDS011;1536;51.098;6.414;2022-08-05T02:05:45;7.40;;;5.40;;
3052;SDS011;1536;51.098;6.414;2022-08-05T02:08:12;8.60;;;5.23;;
3052;SDS011;1536;51.098;6.414;2022-08-05T02:10:40;6.87;;;4.97;;
3052;SDS011;1536;51.098;6.414;2022-08-05T02:13:11;9.13;;;6.00;;
3052;SDS011;1536;51.098;6.414;2022-08-05T02:15:42;7.43;;;4.87;;
3052;SDS011;1536;51.098;6.414;2022-08-05T02:18:13;11.10;;;5.70;;
3052;SDS011;1536;51.098;6.414;2022-08-05T02:20:48;9.00;;;5.47;;
3052;SDS011;1536;51.098;6.414;2022-08-05T02:23:21;8.23;;;5.80;;
3052;SDS011;1536;51.098;6.414;2022-08-05T02:25:51;6.27;;;5.57;;
3052;SDS011;1536;51.098;6.414;2022-08-05T02:28:21;8.40;;;5.47;;
3052;SDS011;1536;51.098;6.414;2022-08-05T02:30:51;7.60;;;5.53;;
3052;SDS011;1536;51.098;6.414;2022-08-05T02:33:23;7.23;;;6.53;;
3052;SDS011;1536;51.098;6.414;2022-08-05T02:35:51;7.73;;;6.67;;
3052;SDS011;1536;51.098;6.414;2022-08-05T02:38:21;6.97;;;5.47;;
3052;SDS011;1536;51.098;6.414;2022-08-05T02:40:49;7.90;;;6.00;;
3052;SDS011;1536;51.098;6.414;2022-08-05T02:43:18;8.00;;;6.57;;
3052;SDS011;1536;51.098;6.414;2022-08-05T02:45:47;13.13;;;6.53;;
3052;SDS011;1536;51.098;6.414;2022-08-05T02:48:17;7.60;;;5.60;;
3052;SDS011;1536;51.098;6.414;2022-08-05T02:50:44;8.80;;;6.50;;
3052;SDS011;1536;51.098;6.414;2022-08-05T02:53:14;8.40;;;6.30;;
3052;SDS011;1536;51.098;6.414;2022-08-05T02:55:42;9.13;;;6.37;;
3052;SDS011;1536;51.098;6.414;2022-08-05T02:58:11;7.57;;;6.13;;
3052;SDS011;1536;51.098;6.414;2022-08-05T03:00:39;10.77;;;8.37;;
3052;SDS011;1536;51.098;6.414;2022-08-05T03:03:09;9.70;;;7.10;;
3052;SDS011;1536;51.098;6.414;2022-08-05T03:05:39;9.40;;;5.67;;
3052;SDS011;1536;51.098;6.414;2022-08-05T03:08:08;9.13;;;6.90;;
3052;SDS011;1536;51.098;6.414;2022-08-05T03:10:35;11.03;;;6.87;;
3052;SDS011;1536;51.098;6.414;2022-08-05T03:13:09;8.57;;;6.40;;
3052;SDS011;1536;51.098;6.414;2022-08-05T03:15:36;8.27;;;6.90;;
3052;SDS011;1536;51.098;6.414;2022-08-05T03:18:06;8.10;;;6.23;;
3052;SDS011;1536;51.098;6.414;2022-08-05T03:20:33;7.67;;;6.17;;
3052;SDS011;1536;51.098;6.414;2022-08-05T03:23:01;8.50;;;6.33;;
3052;SDS011;1536;51.098;6.414;2022-08-05T03:25:29;9.40;;;6.83;;
3052;SDS011;1536;51.098;6.414;2022-08-05T03:27:57;7.63;;;6.47;;
3052;SDS011;1536;51.098;6.414;2022-08-05T03:30:24;7.43;;;6.40;;
3052;SDS011;1536;51.098;6.414;2022-08-05T03:32:52;9.40;;;6.70;;
3052;SDS011;1536;51.098;6.414;2022-08-05T03:35:20;8.57;;;6.93;;
3052;SDS011;1536;51.098;6.414;2022-08-05T03:37:47;9.23;;;6.50;;
3052;SDS011;1536;51.098;6.414;2022-08-05T03:40:15;9.77;;;8.03;;
3052;SDS011;1536;51.098;6.414;2022-08-05T03:42:42;8.97;;;7.50;;
3052;SDS011;1536;51.098;6.414;2022-08-05T03:45:09;8.90;;;7.37;;
3052;SDS011;1536;51.098;6.414;2022-08-05T03:47:36;9.20;;;7.20;;
3052;SDS011;1536;51.098;6.414;2022-08-05T03:50:03;7.83;;;7.03;;
3052;SDS011;1536;51.098;6.414;2022-08-05T03:52:33;8.70;;;7.73;;
3052;SDS011;1536;51.098;6.414;2022-08-05T03:55:05;9.33;;;8.37;;
3052;SDS011;1536;51.098;6.414;2022-08-05T03:57:37;9.77;;;8.77;;
3052;SDS011;1536;51.098;6.414;2022-08-05T04:00:07;9.20;;;7.70;;
3052;SDS011;1536;51.098;6.414;2022-08-05T04:02:36;9.47;;;8.57;;
3052;SDS011;1536;51.098;6.414;2022-08-05T04:05:06;9.27;;;8.30;;
3052;SDS011;1536;51.098;6.414;2022-08-05T04:07:35;10.53;;;9.43;;
3052;SDS011;1536;51.098;6.414;2022-08-05T04:10:04;11.67;;;9.43;;
3052;SDS011;1536;51.098;6.414;2022-08-05T04:12:31;11.33;;;9.43;;
3052;SDS011;1536;51.098;6.414;2022-08-05T04:15:00;14.20;;;9.20;;
3052;SDS011;1536;51.098;6.414;2022-08-05T04:17:27;12.30;;;9.90;;
3052;SDS011;1536;51.098;6.414;2022-08-05T04:19:54;11.70;;;10.33;;
3052;SDS011;1536;51.098;6.414;2022-08-05T04:22:20;12.27;;;10.10;;
3052;SDS011;1536;51.098;6.414;2022-08-05T04:24:47;12.70;;;11.30;;
3052;SDS011;1536;51.098;6.414;2022-08-05T04:27:14;12.20;;;11.00;;
3052;SDS011;1536;51.098;6.414;2022-08-05T04:29:41;12.73;;;10.87;;
3052;SDS011;1536;51.098;6.414;2022-08-05T04:32:09;12.37;;;11.17;;
3052;SDS011;1536;51.098;6.414;2022-08-05T04:34:36;12.47;;;11.33;;
3052;SDS011;1536;51.098;6.414;2022-08-05T04:37:03;13.93;;;11.80;;
3052;SDS011;1536;51.098;6.414;2022-08-05T04:39:30;17.20;;;13.53;;
3052;SDS011;1536;51.098;6.414;2022-08-05T04:41:58;13.93;;;12.60;;
3052;SDS011;1536;51.098;6.414;2022-08-05T04:44:25;15.87;;;14.33;;
3052;SDS011;1536;51.098;6.414;2022-08-05T04:46:52;15.57;;;14.00;;
3052;SDS011;1536;51.098;6.414;2022-08-05T04:49:20;17.33;;;14.30;;
3052;SDS011;1536;51.098;6.414;2022-08-05T04:51:47;14.47;;;12.87;;
3052;SDS011;1536;51.098;6.414;2022-08-05T04:54:13;15.47;;;13.73;;
3052;SDS011;1536;51.098;6.414;2022-08-05T04:56:40;18.67;;;14.10;;
3052;SDS011;1536;51.098;6.414;2022-08-05T04:59:07;15.03;;;13.50;;
3052;SDS011;1536;51.098;6.414;2022-08-05T05:01:34;16.00;;;14.60;;
3052;SDS011;1536;51.098;6.414;2022-08-05T05:04:01;15.30;;;13.70;;
3052;SDS011;1536;51.098;6.414;2022-08-05T05:06:29;16.13;;;13.60;;
3052;SDS011;1536;51.098;6.414;2022-08-05T05:08:56;17.97;;;16.17;;
3052;SDS011;1536;51.098;6.414;2022-08-05T05:11:22;18.57;;;16.60;;
3052;SDS011;1536;51.098;6.414;2022-08-05T05:13:49;19.00;;;16.90;;
3052;SDS011;1536;51.098;6.414;2022-08-05T05:16:16;19.00;;;17.10;;
3052;SDS011;1536;51.098;6.414;2022-08-05T05:18:43;18.37;;;16.43;;
3052;SDS011;1536;51.098;6.414;2022-08-05T05:21:09;16.20;;;14.60;;
3052;SDS011;1536;51.098;6.414;2022-08-05T05:23:37;18.87;;;15.33;;
3052;SDS011;1536;51.098;6.414;2022-08-05T05:26:04;20.43;;;16.43;;
3052;SDS011;1536;51.098;6.414;2022-08-05T05:28:33;19.70;;;17.80;;
3052;SDS011;1536;51.098;6.414;2022-08-05T05:30:59;19.50;;;17.50;;
3052;SDS011;1536;51.098;6.414;2022-08-05T05:33:26;20.47;;;17.30;;
3052;SDS011;1536;51.098;6.414;2022-08-05T05:35:53;19.80;;;17.90;;
3052;SDS011;1536;51.098;6.414;2022-08-05T05:38:20;20.90;;;18.90;;
3052;SDS011;1536;51.098;6.414;2022-08-05T05:40:48;21.63;;;18.97;;
3052;SDS011;1536;51.098;6.414;2022-08-05T05:43:15;19.87;;;17.73;;
3052;SDS011;1536;51.098;6.414;2022-08-05T05:45:41;20.70;;;18.23;;
3052;SDS011;1536;51.098;6.414;2022-08-05T05:48:08;20.77;;;18.00;;
3052;SDS011;1536;51.098;6.414;2022-08-05T05:50:35;18.50;;;16.60;;
3052;SDS011;1536;51.098;6.414;2022-08-05T05:53:04;20.57;;;18.33;;
3052;SDS011;1536;51.098;6.414;2022-08-05T05:55:32;17.10;;;15.50;;
3052;SDS011;1536;51.098;6.414;2022-08-05T05:58:00;17.87;;;16.00;;
3052;SDS011;1536;51.098;6.414;2022-08-05T06:00:27;19.90;;;15.70;;
3052;SDS011;1536;51.098;6.414;2022-08-05T06:02:54;15.83;;;14.43;;
3052;SDS011;1536;51.098;6.414;2022-08-05T06:05:21;17.17;;;15.50;;
3052;SDS011;1536;51.098;6.414;2022-08-05T06:07:48;16.07;;;14.57;;
3052;SDS011;1536;51.098;6.414;2022-08-05T06:10:15;19.40;;;14.00;;
3052;SDS011;1536;51.098;6.414;2022-08-05T06:12:41;16.47;;;14.73;;
3052;SDS011;1536;51.098;6.414;2022-08-05T06:15:10;15.63;;;14.03;;
3052;SDS011;1536;51.098;6.414;2022-08-05T06:17:37;19.40;;;14.23;;
3052;SDS011;1536;51.098;6.414;2022-08-05T06:20:04;18.03;;;16.00;;
3052;SDS011;1536;51.098;6.414;2022-08-05T06:22:32;17.73;;;15.47;;
3052;SDS011;1536;51.098;6.414;2022-08-05T06:24:59;15.73;;;14.13;;
3052;SDS011;1536;51.098;6.414;2022-08-05T06:27:27;17.90;;;14.97;;
3052;SDS011;1536;51.098;6.414;2022-08-05T06:29:54;12.80;;;11.43;;
3052;SDS011;1536;51.098;6.414;2022-08-05T06:32:22;17.10;;;11.60;;
3052;SDS011;1536;51.098;6.414;2022-08-05T06:34:49;11.93;;;10.70;;
3052;SDS011;1536;51.098;6.414;2022-08-05T06:37:15;12.57;;;10.57;;
3052;SDS011;1536;51.098;6.414;2022-08-05T06:39:42;12.87;;;10.90;;
3052;SDS011;1536;51.098;6.414;2022-08-05T06:42:09;12.17;;;10.23;;
3052;SDS011;1536;51.098;6.414;2022-08-05T06:44:37;12.93;;;10.20;;
3052;SDS011;1536;51.098;6.414;2022-08-05T06:47:04;13.17;;;10.20;;
3052;SDS011;1536;51.098;6.414;2022-08-05T06:49:32;10.20;;;9.07;;
3052;SDS011;1536;51.098;6.414;2022-08-05T06:51:59;11.70;;;8.50;;
3052;SDS011;1536;51.098;6.414;2022-08-05T06:54:26;13.00;;;9.03;;
3052;SDS011;1536;51.098;6.414;2022-08-05T06:56:52;12.23;;;8.17;;
3052;SDS011;1536;51.098;6.414;2022-08-05T06:59:20;11.70;;;7.83;;
3052;SDS011;1536;51.098;6.414;2022-08-05T07:01:47;9.10;;;7.73;;
3052;SDS011;1536;51.098;6.414;2022-08-05T07:04:14;9.00;;;6.93;;
3052;SDS011;1536;51.098;6.414;2022-08-05T07:06:42;9.27;;;7.70;;
3052;SDS011;1536;51.098;6.414;2022-08-05T07:09:09;11.00;;;8.87;;
3052;SDS011;1536;51.098;6.414;2022-08-05T07:11:36;11.50;;;7.93;;
3052;SDS011;1536;51.098;6.414;2022-08-05T07:14:03;8.13;;;7.27;;
3052;SDS011;1536;51.098;6.414;2022-08-05T07:16:48;10.10;;;7.93;;
3052;SDS011;1536;51.098;6.414;2022-08-05T07:19:15;16.10;;;7.10;;
3052;SDS011;1536;51.098;6.414;2022-08-05T07:21:44;10.10;;;7.53;;
3052;SDS011;1536;51.098;6.414;2022-08-05T07:24:11;16.30;;;7.47;;
3052;SDS011;1536;51.098;6.414;2022-08-05T07:26:39;10.63;;;7.20;;
3052;SDS011;1536;51.098;6.414;2022-08-05T07:29:06;10.73;;;7.20;;
3052;SDS011;1536;51.098;6.414;2022-08-05T07:31:34;7.13;;;6.03;;
3052;SDS011;1536;51.098;6.414;2022-08-05T07:34:01;9.90;;;5.97;;
3052;SDS011;1536;51.098;6.414;2022-08-05T07:36:28;11.70;;;6.83;;
3052;SDS011;1536;51.098;6.414;2022-08-05T07:38:59;11.63;;;6.33;;
3052;SDS011;1536;51.098;6.414;2022-08-05T07:41:26;9.53;;;6.80;;
3052;SDS011;1536;51.098;6.414;2022-08-05T07:43:54;10.53;;;5.40;;
3052;SDS011;1536;51.098;6.414;2022-08-05T07:46:22;9.83;;;6.83;;
3052;SDS011;1536;51.098;6.414;2022-08-05T07:48:49;10.37;;;6.53;;
3052;SDS011;1536;51.098;6.414;2022-08-05T07:51:16;7.17;;;5.67;;
3052;SDS011;1536;51.098;6.414;2022-08-05T07:53:43;10.90;;;6.13;;
3052;SDS011;1536;51.098;6.414;2022-08-05T07:56:11;8.50;;;5.33;;
3052;SDS011;1536;51.098;6.414;2022-08-05T07:58:38;8.20;;;4.90;;
3052;SDS011;1536;51.098;6.414;2022-08-05T08:01:05;10.33;;;5.90;;
3052;SDS011;1536;51.098;6.414;2022-08-05T08:03:31;7.73;;;5.60;;
3052;SDS011;1536;51.098;6.414;2022-08-05T08:05:58;9.10;;;5.20;;
3052;SDS011;1536;51.098;6.414;2022-08-05T08:08:25;7.73;;;5.20;;
3052;SDS011;1536;51.098;6.414;2022-08-05T08:10:52;8.80;;;5.03;;
3052;SDS011;1536;51.098;6.414;2022-08-05T08:13:21;8.90;;;4.97;;
3052;SDS011;1536;51.098;6.414;2022-08-05T08:15:48;5.10;;;4.40;;
3052;SDS011;1536;51.098;6.414;2022-08-05T08:18:15;9.77;;;4.67;;
3052;SDS011;1536;51.098;6.414;2022-08-05T08:20:42;8.20;;;4.13;;
3052;SDS011;1536;51.098;6.414;2022-08-05T08:23:09;8.93;;;4.70;;
3052;SDS011;1536;51.098;6.414;2022-08-05T08:25:36;8.00;;;4.50;;
3052;SDS011;1536;51.098;6.414;2022-08-05T08:28:03;8.00;;;4.23;;
3052;SDS011;1536;51.098;6.414;2022-08-05T08:30:31;8.47;;;4.00;;
3052;SDS011;1536;51.098;6.414;2022-08-05T08:32:57;8.17;;;4.60;;
3052;SDS011;1536;51.098;6.414;2022-08-05T08:35:24;4.40;;;4.00;;
3052;SDS011;1536;51.098;6.414;2022-08-05T08:37:51;9.97;;;4.57;;
3052;SDS011;1536;51.098;6.414;2022-08-05T08:40:18;9.40;;;4.87;;
3052;SDS011;1536;51.098;6.414;2022-08-05T08:42:46;7.50;;;5.33;;
3052;SDS011;1536;51.098;6.414;2022-08-05T08:45:15;6.87;;;3.57;;
3052;SDS011;1536;51.098;6.414;2022-08-05T08:47:45;7.47;;;4.00;;
3052;SDS011;1536;51.098;6.414;2022-08-05T08:50:15;9.00;;;4.60;;
3052;SDS011;1536;51.098;6.414;2022-08-05T08:52:44;7.43;;;3.73;;
3052;SDS011;1536;51.098;6.414;2022-08-05T08:55:14;4.57;;;3.40;;
3052;SDS011;1536;51.098;6.414;2022-08-05T08:57:41;7.97;;;4.10;;
3052;SDS011;1536;51.098;6.414;2022-08-05T09:00:09;4.00;;;3.47;;
3052;SDS011;1536;51.098;6.414;2022-08-05T09:02:36;5.57;;;3.43;;
3052;SDS011;1536;51.098;6.414;2022-08-05T09:05:05;6.63;;;3.90;;
3052;SDS011;1536;51.098;6.414;2022-08-05T09:07:32;6.73;;;3.27;;
3052;SDS011;1536;51.098;6.414;2022-08-05T09:09:59;6.13;;;4.17;;
3052;SDS011;1536;51.098;6.414;2022-08-05T09:12:26;5.70;;;3.50;;
3052;SDS011;1536;51.098;6.414;2022-08-05T09:14:53;8.13;;;3.83;;
3052;SDS011;1536;51.098;6.414;2022-08-05T09:17:20;4.00;;;2.93;;
3052;SDS011;1536;51.098;6.414;2022-08-05T09:19:47;3.80;;;3.07;;
3052;SDS011;1536;51.098;6.414;2022-08-05T09:22:15;6.60;;;3.87;;
3052;SDS011;1536;51.098;6.414;2022-08-05T09:24:42;8.00;;;4.07;;
3052;SDS011;1536;51.098;6.414;2022-08-05T09:27:29;5.23;;;3.33;;
3052;SDS011;1536;51.098;6.414;2022-08-05T09:29:57;7.90;;;3.67;;
3052;SDS011;1536;51.098;6.414;2022-08-05T09:32:32;9.03;;;4.33;;
3052;SDS011;1536;51.098;6.414;2022-08-05T09:35:01;5.60;;;3.30;;
3052;SDS011;1536;51.098;6.414;2022-08-05T09:37:39;4.50;;;2.80;;
3052;SDS011;1536;51.098;6.414;2022-08-05T09:40:28;5.27;;;3.10;;
3052;SDS011;1536;51.098;6.414;2022-08-05T09:42:56;8.10;;;3.67;;
3052;SDS011;1536;51.098;6.414;2022-08-05T09:45:33;3.53;;;3.20;;
3052;SDS011;1536;51.098;6.414;2022-08-05T09:50:50;5.97;;;3.77;;
3052;SDS011;1536;51.098;6.414;2022-08-05T09:53:20;3.67;;;3.37;;
3052;SDS011;1536;51.098;6.414;2022-08-05T09:55:51;8.67;;;4.10;;
3052;SDS011;1536;51.098;6.414;2022-08-05T09:58:20;6.37;;;3.57;;
3052;SDS011;1536;51.098;6.414;2022-08-05T10:00:51;4.70;;;3.60;;
3052;SDS011;1536;51.098;6.414;2022-08-05T10:03:19;4.53;;;3.03;;
3052;SDS011;1536;51.098;6.414;2022-08-05T10:05:46;5.40;;;2.97;;
3052;SDS011;1536;51.098;6.414;2022-08-05T10:08:41;4.40;;;3.10;;
3052;SDS011;1536;51.098;6.414;2022-08-05T10:11:12;5.43;;;2.80;;
3052;SDS011;1536;51.098;6.414;2022-08-05T10:13:40;7.87;;;3.23;;
3052;SDS011;1536;51.098;6.414;2022-08-05T10:18:54;5.60;;;2.73;;
3052;SDS011;1536;51.098;6.414;2022-08-05T10:21:21;5.93;;;2.47;;
3052;SDS011;1536;51.098;6.414;2022-08-05T10:23:50;3.80;;;2.47;;
3052;SDS011;1536;51.098;6.414;2022-08-05T10:26:17;4.30;;;3.00;;
3052;SDS011;1536;51.098;6.414;2022-08-05T10:28:44;5.90;;;2.37;;
3052;SDS011;1536;51.098;6.414;2022-08-05T10:31:13;2.43;;;2.10;;
3052;SDS011;1536;51.098;6.414;2022-08-05T10:33:41;7.80;;;3.30;;
3052;SDS011;1536;51.098;6.414;2022-08-05T10:36:08;4.67;;;2.83;;
3052;SDS011;1536;51.098;6.414;2022-08-05T10:38:35;5.07;;;3.63;;
3052;SDS011;1536;51.098;6.414;2022-08-05T10:41:09;6.77;;;3.10;;
3052;SDS011;1536;51.098;6.414;2022-08-05T10:43:44;6.50;;;3.07;;
3052;SDS011;1536;51.098;6.414;2022-08-05T10:46:15;5.90;;;3.20;;
3052;SDS011;1536;51.098;6.414;2022-08-05T10:48:43;8.30;;;4.43;;
3052;SDS011;1536;51.098;6.414;2022-08-05T10:51:12;6.70;;;3.30;;
3052;SDS011;1536;51.098;6.414;2022-08-05T10:53:41;5.63;;;3.40;;
3052;SDS011;1536;51.098;6.414;2022-08-05T10:56:12;6.37;;;2.83;;
3052;SDS011;1536;51.098;6.414;2022-08-05T10:58:46;5.17;;;2.80;;
3052;SDS011;1536;51.098;6.414;2022-08-05T11:01:15;7.60;;;3.10;;
3052;SDS011;1536;51.098;6.414;2022-08-05T11:06:25;5.70;;;2.83;;
3052;SDS011;1536;51.098;6.414;2022-08-05T11:09:11;3.07;;;2.67;;
3052;SDS011;1536;51.098;6.414;2022-08-05T11:11:43;6.33;;;3.40;;
3052;SDS011;1536;51.098;6.414;2022-08-05T11:14:12;5.10;;;2.60;;
3052;SDS011;1536;51.098;6.414;2022-08-05T11:19:47;5.03;;;2.60;;
3052;SDS011;1536;51.098;6.414;2022-08-05T11:27:55;7.43;;;3.00;;
3052;SDS011;1536;51.098;6.414;2022-08-05T11:30:22;4.00;;;2.50;;
3052;SDS011;1536;51.098;6.414;2022-08-05T11:32:49;4.40;;;2.90;;
3052;SDS011;1536;51.098;6.414;2022-08-05T11:38:17;11.43;;;3.37;;
3052;SDS011;1536;51.098;6.414;2022-08-05T11:40:59;4.97;;;3.47;;
3052;SDS011;1536;51.098;6.414;2022-08-05T11:43:43;6.10;;;3.67;;
3052;SDS011;1536;51.098;6.414;2022-08-05T11:46:23;3.73;;;2.90;;
3052;SDS011;1536;51.098;6.414;2022-08-05T11:48:50;4.70;;;3.00;;
3052;SDS011;1536;51.098;6.414;2022-08-05T11:51:17;3.60;;;2.57;;
3052;SDS011;1536;51.098;6.414;2022-08-05T11:53:44;3.33;;;2.63;;
3052;SDS011;1536;51.098;6.414;2022-08-05T11:56:12;5.03;;;2.90;;
3052;SDS011;1536;51.098;6.414;2022-08-05T11:58:40;4.77;;;2.70;;
3052;SDS011;1536;51.098;6.414;2022-08-05T12:01:10;7.23;;;3.50;;
3052;SDS011;1536;51.098;6.414;2022-08-05T12:03:39;9.83;;;3.00;;
3052;SDS011;1536;51.098;6.414;2022-08-05T12:06:07;5.80;;;3.20;;
3052;SDS011;1536;51.098;6.414;2022-08-05T12:08:39;4.07;;;3.27;;
3052;SDS011;1536;51.098;6.414;2022-08-05T12:11:07;6.10;;;3.40;;
3052;SDS011;1536;51.098;6.414;2022-08-05T12:13:36;8.97;;;3.47;;
3052;SDS011;1536;51.098;6.414;2022-08-05T12:16:04;5.10;;;3.17;;
3052;SDS011;1536;51.098;6.414;2022-08-05T12:18:33;5.10;;;2.50;;
3052;SDS011;1536;51.098;6.414;2022-08-05T12:21:10;5.43;;;2.90;;
3052;SDS011;1536;51.098;6.414;2022-08-05T12:23:39;5.13;;;3.37;;
3052;SDS011;1536;51.098;6.414;2022-08-05T12:26:06;6.33;;;4.00;;
3052;SDS011;1536;51.098;6.414;2022-08-05T12:28:33;4.20;;;3.23;;
3052;SDS011;1536;51.098;6.414;2022-08-05T12:31:01;7.87;;;2.90;;
3052;SDS011;1536;51.098;6.414;2022-08-05T12:33:28;5.87;;;2.40;;
3052;SDS011;1536;51.098;6.414;2022-08-05T12:35:57;3.23;;;2.17;;
3052;SDS011;1536;51.098;6.414;2022-08-05T12:38:24;7.30;;;2.90;;
3052;SDS011;1536;51.098;6.414;2022-08-05T12:40:51;3.80;;;2.10;;
3052;SDS011;1536;51.098;6.414;2022-08-05T12:43:18;3.70;;;2.27;;
3052;SDS011;1536;51.098;6.414;2022-08-05T12:45:49;4.47;;;2.30;;
3052;SDS011;1536;51.098;6.414;2022-08-05T12:48:16;6.73;;;2.93;;
3052;SDS011;1536;51.098;6.414;2022-08-05T12:50:43;7.47;;;2.70;;
3052;SDS011;1536;51.098;6.414;2022-08-05T12:53:41;6.57;;;2.17;;
3052;SDS011;1536;51.098;6.414;2022-08-05T12:56:15;5.30;;;2.70;;
3052;SDS011;1536;51.098;6.414;2022-08-05T12:58:43;4.17;;;2.60;;
3052;SDS011;1536;51.098;6.414;2022-08-05T13:01:12;4.90;;;2.57;;
3052;SDS011;1536;51.098;6.414;2022-08-05T13:03:40;5.60;;;2.87;;
3052;SDS011;1536;51.098;6.414;2022-08-05T13:06:07;4.50;;;2.90;;
3052;SDS011;1536;51.098;6.414;2022-08-05T13:08:38;5.63;;;2.60;;
3052;SDS011;1536;51.098;6.414;2022-08-05T13:11:05;4.47;;;2.20;;
3052;SDS011;1536;51.098;6.414;2022-08-05T13:13:32;6.10;;;2.60;;
3052;SDS011;1536;51.098;6.414;2022-08-05T13:16:08;20.00;;;3.33;;
3052;SDS011;1536;51.098;6.414;2022-08-05T13:18:37;12.57;;;3.83;;
3052;SDS011;1536;51.098;6.414;2022-08-05T13:21:04;3.93;;;2.60;;
3052;SDS011;1536;51.098;6.414;2022-08-05T13:23:31;5.30;;;2.90;;
3052;SDS011;1536;51.098;6.414;2022-08-05T13:25:59;5.03;;;3.23;;
3052;SDS011;1536;51.098;6.414;2022-08-05T13:28:27;3.83;;;2.40;;
3052;SDS011;1536;51.098;6.414;2022-08-05T13:30:54;3.60;;;2.40;;
3052;SDS011;1536;51.098;6.414;2022-08-05T13:33:21;3.60;;;2.00;;
3052;SDS011;1536;51.098;6.414;2022-08-05T13:35:48;3.40;;;2.07;;
3052;SDS011;1536;51.098;6.414;2022-08-05T13:38:15;5.67;;;2.30;;
3052;SDS011;1536;51.098;6.414;2022-08-05T13:40:41;5.80;;;2.93;;
3052;SDS011;1536;51.098;6.414;2022-08-05T13:43:10;3.90;;;2.60;;
3052;SDS011;1536;51.098;6.414;2022-08-05T13:45:37;2.60;;;1.63;;
3052;SDS011;1536;51.098;6.414;2022-08-05T13:48:04;2.90;;;1.50;;
3052;SDS011;1536;51.098;6.414;2022-08-05T13:50:31;6.70;;;1.97;;
3052;SDS011;1536;51.098;6.414;2022-08-05T13:52:58;2.40;;;1.50;;
3052;SDS011;1536;51.098;6.414;2022-08-05T13:55:25;2.63;;;1.60;;
3052;SDS011;1536;51.098;6.414;2022-08-05T13:57:51;4.83;;;2.20;;
3052;SDS011;1536;51.098;6.414;2022-08-05T14:00:20;3.20;;;1.60;;
3052;SDS011;1536;51.098;6.414;2022-08-05T14:02:46;2.37;;;1.87;;
3052;SDS011;1536;51.098;6.414;2022-08-05T14:05:13;1.63;;;1.50;;
3052;SDS011;1536;51.098;6.414;2022-08-05T14:07:40;7.63;;;1.90;;
3052;SDS011;1536;51.098;6.414;2022-08-05T14:10:09;6.73;;;2.10;;
3052;SDS011;1536;51.098;6.414;2022-08-05T14:12:37;5.83;;;2.63;;
3052;SDS011;1536;51.098;6.414;2022-08-05T14:15:05;7.07;;;2.17;;
3052;SDS011;1536;51.098;6.414;2022-08-05T14:17:34;4.50;;;2.00;;
3052;SDS011;1536;51.098;6.414;2022-08-05T14:20:01;3.70;;;2.03;;
3052;SDS011;1536;51.098;6.414;2022-08-05T14:22:42;4.90;;;1.90;;
3052;SDS011;1536;51.098;6.414;2022-08-05T14:25:09;3.03;;;2.00;;
3052;SDS011;1536;51.098;6.414;2022-08-05T14:27:38;3.73;;;2.20;;
3052;SDS011;1536;51.098;6.414;2022-08-05T14:30:05;4.80;;;1.70;;
3052;SDS011;1536;51.098;6.414;2022-08-05T14:32:34;3.03;;;1.70;;
3052;SDS011;1536;51.098;6.414;2022-08-05T14:35:01;4.47;;;2.03;;
3052;SDS011;1536;51.098;6.414;2022-08-05T14:37:28;4.23;;;1.70;;
3052;SDS011;1536;51.098;6.414;2022-08-05T14:39:55;1.90;;;1.70;;
3052;SDS011;1536;51.098;6.414;2022-08-05T14:42:22;3.63;;;1.80;;
3052;SDS011;1536;51.098;6.414;2022-08-05T14:44:49;2.30;;;1.80;;
3052;SDS011;1536;51.098;6.414;2022-08-05T14:47:16;2.00;;;1.67;;
3052;SDS011;1536;51.098;6.414;2022-08-05T14:49:44;4.17;;;1.50;;
3052;SDS011;1536;51.098;6.414;2022-08-05T14:52:11;2.80;;;1.80;;
3052;SDS011;1536;51.098;6.414;2022-08-05T14:54:38;10.40;;;2.43;;
3052;SDS011;1536;51.098;6.414;2022-08-05T14:57:05;3.00;;;1.97;;
3052;SDS011;1536;51.098;6.414;2022-08-05T14:59:31;3.57;;;1.87;;
3052;SDS011;1536;51.098;6.414;2022-08-05T15:01:58;5.30;;;2.10;;
3052;SDS011;1536;51.098;6.414;2022-08-05T15:04:25;2.43;;;1.73;;
3052;SDS011;1536;51.098;6.414;2022-08-05T15:06:53;2.53;;;1.73;;
3052;SDS011;1536;51.098;6.414;2022-08-05T15:09:20;4.10;;;1.90;;
3052;SDS011;1536;51.098;6.414;2022-08-05T15:11:47;3.00;;;1.87;;
3052;SDS011;1536;51.098;6.414;2022-08-05T15:14:14;2.33;;;2.00;;
3052;SDS011;1536;51.098;6.414;2022-08-05T15:16:41;7.27;;;2.73;;
3052;SDS011;1536;51.098;6.414;2022-08-05T15:19:09;3.70;;;1.63;;
3052;SDS011;1536;51.098;6.414;2022-08-05T15:21:35;3.30;;;1.73;;
3052;SDS011;1536;51.098;6.414;2022-08-05T15:24:04;1.87;;;1.53;;
3052;SDS011;1536;51.098;6.414;2022-08-05T15:26:31;4.97;;;1.20;;
3052;SDS011;1536;51.098;6.414;2022-08-05T15:28:58;4.80;;;1.67;;
3052;SDS011;1536;51.098;6.414;2022-08-05T15:31:25;3.07;;;1.60;;
3052;SDS011;1536;51.098;6.414;2022-08-05T15:33:52;2.50;;;1.40;;
3052;SDS011;1536;51.098;6.414;2022-08-05T15:36:18;3.73;;;1.30;;
3052;SDS011;1536;51.098;6.414;2022-08-05T15:38:45;5.63;;;1.23;;